sensor_id;sensor_type;location;lat;lon;timestamp;temperature;humidity
18101;DHT22;9177;49.156;8.142;2022-08-24T00:01:25;27.10;91.00
18101;DHT22;9177;49.156;8.142;2022-08-24T00:03:54;27.10;91.00
18101;DHT22;9177;49.156;8.142;2022-08-24T00:06:25;27.10;91.10
18101;DHT22;9177;49.156;8.142;2022-08-24T00:08:53;27.10;91.10
18101;DHT22;9177;49.156;8.142;2022-08-24T00:11:21;27.10;91.10
18101;DHT22;9177;49.156;8.142;2022-08-24T00:13:50;27.10;91.10
18101;DHT22;9177;49.156;8.142;2022-08-24T00:16:17;27.10;91.10
18101;DHT22;9177;49.156;8.142;2022-08-24T00:18:45;27.10;91.10
18101;DHT22;9177;49.156;8.142;2022-08-24T00:21:13;27.10;91.50
18101;DHT22;9177;49.156;8.142;2022-08-24T00:23:40;27.10;91.10
18101;DHT22;9177;49.156;8.142;2022-08-24T00:26:07;27.10;91.50
18101;DHT22;9177;49.156;8.142;2022-08-24T00:28:35;27.10;91.10
18101;DHT22;9177;49.156;8.142;2022-08-24T00:31:03;27.10;91.20
18101;DHT22;9177;49.156;8.142;2022-08-24T00:33:30;27.10;91.20
18101;DHT22;9177;49.156;8.142;2022-08-24T00:35:57;27.10;91.50
18101;DHT22;9177;49.156;8.142;2022-08-24T00:38:24;27.10;91.50
18101;DHT22;9177;49.156;8.142;2022-08-24T00:40:51;27.10;91.20
18101;DHT22;9177;49.156;8.142;2022-08-24T00:43:20;27.10;91.20
18101;DHT22;9177;49.156;8.142;2022-08-24T00:46:09;27.10;91.20
18101;DHT22;9177;49.156;8.142;2022-08-24T00:48:41;27.10;91.20
18101;DHT22;9177;49.156;8.142;2022-08-24T00:51:17;27.10;91.20
18101;DHT22;9177;49.156;8.142;2022-08-24T00:53:49;27.10;91.20
18101;DHT22;9177;49.156;8.142;2022-08-24T00:56:21;27.10;91.20
18101;DHT22;9177;49.156;8.142;2022-08-24T00:58:51;27.10;91.30
18101;DHT22;9177;49.156;8.142;2022-08-24T01:01:21;27.10;91.30
18101;DHT22;9177;49.156;8.142;2022-08-24T01:03:48;27.10;91.30
18101;DHT22;9177;49.156;8.142;2022-08-24T01:06:16;27.10;91.30
18101;DHT22;9177;49.156;8.142;2022-08-24T01:08:43;27.10;91.30
18101;DHT22;9177;49.156;8.142;2022-08-24T01:11:12;27.10;91.30
18101;DHT22;9177;49.156;8.142;2022-08-24T01:13:42;27.10;91.30
18101;DHT22;9177;49.156;8.142;2022-08-24T01:16:11;27.10;91.30
18101;DHT22;9177;49.156;8.142;2022-08-24T01:18:40;27.00;91.30
18101;DHT22;9177;49.156;8.142;2022-08-24T01:21:17;27.10;91.30
18101;DHT22;9177;49.156;8.142;2022-08-24T01:23:48;27.10;91.30
18101;DHT22;9177;49.156;8.142;2022-08-24T01:26:19;27.00;91.30
18101;DHT22;9177;49.156;8.142;2022-08-24T01:28:49;27.10;91.40
18101;DHT22;9177;49.156;8.142;2022-08-24T01:31:19;27.10;91.70
18101;DHT22;9177;49.156;8.142;2022-08-24T01:33:48;27.10;91.40
18101;DHT22;9177;49.156;8.142;2022-08-24T01:36:29;27.10;91.40
18101;DHT22;9177;49.156;8.142;2022-08-24T01:39:05;27.10;91.40
18101;DHT22;9177;49.156;8.142;2022-08-24T01:41:33;27.10;91.40
18101;DHT22;9177;49.156;8.142;2022-08-24T01:44:00;27.10;91.40
18101;DHT22;9177;49.156;8.142;2022-08-24T01:46:27;27.10;91.80
18101;DHT22;9177;49.156;8.142;2022-08-24T01:48:55;27.00;91.40
18101;DHT22;9177;49.156;8.142;2022-08-24T01:51:23;27.00;91.40
18101;DHT22;9177;49.156;8.142;2022-08-24T01:53:50;27.10;91.40
18101;DHT22;9177;49.156;8.142;2022-08-24T01:56:18;27.00;91.80
18101;DHT22;9177;49.156;8.142;2022-08-24T01:58:46;27.00;91.40
18101;DHT22;9177;49.156;8.142;2022-08-24T02:01:15;27.00;91.40
18101;DHT22;9177;49.156;8.142;2022-08-24T02:03:43;27.00;91.40
18101;DHT22;9177;49.156;8.142;2022-08-24T02:06:10;27.00;91.40
18101;DHT22;9177;49.156;8.142;2022-08-24T02:08:40;27.00;91.80
18101;DHT22;9177;49.156;8.142;2022-08-24T02:11:08;27.00;91.80
18101;DHT22;9177;49.156;8.142;2022-08-24T02:13:38;27.00;91.40
18101;DHT22;9177;49.156;8.142;2022-08-24T02:16:06;27.00;91.40
18101;DHT22;9177;49.156;8.142;2022-08-24T02:18:34;27.00;91.40
18101;DHT22;9177;49.156;8.142;2022-08-24T02:21:02;27.00;91.40
18101;DHT22;9177;49.156;8.142;2022-08-24T02:23:29;27.00;91.40
18101;DHT22;9177;49.156;8.142;2022-08-24T02:25:56;27.00;91.40
18101;DHT22;9177;49.156;8.142;2022-08-24T02:28:23;27.00;91.50
18101;DHT22;9177;49.156;8.142;2022-08-24T02:30:51;27.00;91.50
18101;DHT22;9177;49.156;8.142;2022-08-24T02:33:18;27.00;91.50
18101;DHT22;9177;49.156;8.142;2022-08-24T02:35:45;27.00;91.50
18101;DHT22;9177;49.156;8.142;2022-08-24T02:38:12;27.00;91.50
18101;DHT22;9177;49.156;8.142;2022-08-24T02:40:42;27.00;91.50
18101;DHT22;9177;49.156;8.142;2022-08-24T02:43:09;27.00;91.60
18101;DHT22;9177;49.156;8.142;2022-08-24T02:45:37;27.00;91.90
18101;DHT22;9177;49.156;8.142;2022-08-24T02:48:06;27.00;91.60
18101;DHT22;9177;49.156;8.142;2022-08-24T02:50:37;27.00;91.60
18101;DHT22;9177;49.156;8.142;2022-08-24T02:53:05;27.00;91.60
18101;DHT22;9177;49.156;8.142;2022-08-24T02:55:32;27.00;91.60
18101;DHT22;9177;49.156;8.142;2022-08-24T02:58:04;27.00;92.00
18101;DHT22;9177;49.156;8.142;2022-08-24T03:00:31;27.00;91.60
18101;DHT22;9177;49.156;8.142;2022-08-24T03:02:58;27.00;92.00
18101;DHT22;9177;49.156;8.142;2022-08-24T03:05:27;27.00;91.60
18101;DHT22;9177;49.156;8.142;2022-08-24T03:07:55;26.90;91.60
18101;DHT22;9177;49.156;8.142;2022-08-24T03:10:22;27.00;91.60
18101;DHT22;9177;49.156;8.142;2022-08-24T03:12:49;27.00;91.60
18101;DHT22;9177;49.156;8.142;2022-08-24T03:15:17;27.00;91.60
18101;DHT22;9177;49.156;8.142;2022-08-24T03:17:48;27.00;91.70
18101;DHT22;9177;49.156;8.142;2022-08-24T03:20:19;27.00;91.70
18101;DHT22;9177;49.156;8.142;2022-08-24T03:22:48;27.00;91.60
18101;DHT22;9177;49.156;8.142;2022-08-24T03:25:16;27.00;91.60
18101;DHT22;9177;49.156;8.142;2022-08-24T03:27:44;27.00;91.60
18101;DHT22;9177;49.156;8.142;2022-08-24T03:30:13;26.90;91.60
18101;DHT22;9177;49.156;8.142;2022-08-24T03:32:41;27.00;91.60
18101;DHT22;9177;49.156;8.142;2022-08-24T03:35:09;26.90;91.60
18101;DHT22;9177;49.156;8.142;2022-08-24T03:37:37;26.90;91.60
18101;DHT22;9177;49.156;8.142;2022-08-24T03:40:08;27.00;91.70
18101;DHT22;9177;49.156;8.142;2022-08-24T03:42:35;27.00;91.70
18101;DHT22;9177;49.156;8.142;2022-08-24T03:45:03;26.90;91.60
18101;DHT22;9177;49.156;8.142;2022-08-24T03:47:30;26.90;91.60
18101;DHT22;9177;49.156;8.142;2022-08-24T03:49:57;26.90;91.70
18101;DHT22;9177;49.156;8.142;2022-08-24T03:52:24;26.90;91.70
18101;DHT22;9177;49.156;8.142;2022-08-24T03:54:50;26.90;91.70
18101;DHT22;9177;49.156;8.142;2022-08-24T03:57:19;26.90;92.10
18101;DHT22;9177;49.156;8.142;2022-08-24T03:59:45;26.90;92.10
18101;DHT22;9177;49.156;8.142;2022-08-24T04:02:12;26.90;91.70
18101;DHT22;9177;49.156;8.142;2022-08-24T04:04:39;26.90;91.70
18101;DHT22;9177;49.156;8.142;2022-08-24T04:07:06;26.90;91.70
18101;DHT22;9177;49.156;8.142;2022-08-24T04:09:34;26.90;92.10
18101;DHT22;9177;49.156;8.142;2022-08-24T04:12:01;26.90;91.70
18101;DHT22;9177;49.156;8.142;2022-08-24T04:14:29;26.90;91.70
18101;DHT22;9177;49.156;8.142;2022-08-24T04:16:56;26.90;91.80
18101;DHT22;9177;49.156;8.142;2022-08-24T04:19:23;26.90;91.70
18101;DHT22;9177;49.156;8.142;2022-08-24T04:21:50;26.90;91.70
18101;DHT22;9177;49.156;8.142;2022-08-24T04:24:18;26.90;91.80
18101;DHT22;9177;49.156;8.142;2022-08-24T04:26:46;26.90;91.70
18101;DHT22;9177;49.156;8.142;2022-08-24T04:29:15;26.90;92.10
18101;DHT22;9177;49.156;8.142;2022-08-24T04:31:45;26.90;92.20
18101;DHT22;9177;49.156;8.142;2022-08-24T04:34:13;26.90;91.80
18101;DHT22;9177;49.156;8.142;2022-08-24T04:36:41;26.90;91.80
18101;DHT22;9177;49.156;8.142;2022-08-24T04:39:09;26.90;91.80
18101;DHT22;9177;49.156;8.142;2022-08-24T04:41:36;26.90;91.80
18101;DHT22;9177;49.156;8.142;2022-08-24T04:44:05;26.90;91.80
18101;DHT22;9177;49.156;8.142;2022-08-24T04:46:32;26.90;91.80
18101;DHT22;9177;49.156;8.142;2022-08-24T04:49:01;26.90;91.80
18101;DHT22;9177;49.156;8.142;2022-08-24T04:51:29;26.90;91.80
18101;DHT22;9177;49.156;8.142;2022-08-24T04:53:55;26.90;91.80
18101;DHT22;9177;49.156;8.142;2022-08-24T04:56:23;26.90;91.80
18101;DHT22;9177;49.156;8.142;2022-08-24T04:58:52;26.90;91.80
18101;DHT22;9177;49.156;8.142;2022-08-24T05:01:23;26.90;91.80
18101;DHT22;9177;49.156;8.142;2022-08-24T05:03:52;26.90;91.80
18101;DHT22;9177;49.156;8.142;2022-08-24T05:06:22;26.80;91.80
18101;DHT22;9177;49.156;8.142;2022-08-24T05:08:50;26.90;91.80
18101;DHT22;9177;49.156;8.142;2022-08-24T05:11:19;26.90;91.80
18101;DHT22;9177;49.156;8.142;2022-08-24T05:13:47;26.90;92.20
18101;DHT22;9177;49.156;8.142;2022-08-24T05:16:15;26.90;91.80
18101;DHT22;9177;49.156;8.142;2022-08-24T05:18:43;26.90;91.80
18101;DHT22;9177;49.156;8.142;2022-08-24T05:21:12;26.90;91.80
18101;DHT22;9177;49.156;8.142;2022-08-24T05:23:41;26.90;91.80
18101;DHT22;9177;49.156;8.142;2022-08-24T05:26:10;26.90;91.90
18101;DHT22;9177;49.156;8.142;2022-08-24T05:28:38;26.80;91.80
18101;DHT22;9177;49.156;8.142;2022-08-24T05:31:06;26.80;91.90
18101;DHT22;9177;49.156;8.142;2022-08-24T05:33:34;26.90;91.90
18101;DHT22;9177;49.156;8.142;2022-08-24T05:36:02;26.80;91.90
18101;DHT22;9177;49.156;8.142;2022-08-24T05:38:28;26.80;91.90
18101;DHT22;9177;49.156;8.142;2022-08-24T05:40:57;26.80;91.90
18101;DHT22;9177;49.156;8.142;2022-08-24T05:43:25;26.90;91.90
18101;DHT22;9177;49.156;8.142;2022-08-24T05:45:52;26.80;91.90
18101;DHT22;9177;49.156;8.142;2022-08-24T05:48:19;26.80;92.30
18101;DHT22;9177;49.156;8.142;2022-08-24T05:50:51;26.80;91.90
18101;DHT22;9177;49.156;8.142;2022-08-24T05:53:23;26.80;91.90
18101;DHT22;9177;49.156;8.142;2022-08-24T05:55:50;26.80;92.00
18101;DHT22;9177;49.156;8.142;2022-08-24T05:58:19;26.80;92.00
18101;DHT22;9177;49.156;8.142;2022-08-24T06:00:46;26.80;92.00
18101;DHT22;9177;49.156;8.142;2022-08-24T06:03:15;26.70;92.00
18101;DHT22;9177;49.156;8.142;2022-08-24T06:05:43;26.70;92.00
18101;DHT22;9177;49.156;8.142;2022-08-24T06:08:13;26.70;92.00
18101;DHT22;9177;49.156;8.142;2022-08-24T06:10:41;26.70;92.00
18101;DHT22;9177;49.156;8.142;2022-08-24T06:13:08;26.70;92.00
18101;DHT22;9177;49.156;8.142;2022-08-24T06:15:37;26.70;92.00
18101;DHT22;9177;49.156;8.142;2022-08-24T06:18:05;26.70;92.00
18101;DHT22;9177;49.156;8.142;2022-08-24T06:20:35;26.70;92.00
18101;DHT22;9177;49.156;8.142;2022-08-24T06:23:03;26.70;92.00
18101;DHT22;9177;49.156;8.142;2022-08-24T06:25:30;26.70;92.00
18101;DHT22;9177;49.156;8.142;2022-08-24T06:28:14;26.70;92.00
18101;DHT22;9177;49.156;8.142;2022-08-24T06:30:42;26.70;92.00
18101;DHT22;9177;49.156;8.142;2022-08-24T06:33:10;26.70;91.90
18101;DHT22;9177;49.156;8.142;2022-08-24T06:35:37;26.70;92.30
18101;DHT22;9177;49.156;8.142;2022-08-24T06:38:04;26.70;91.90
18101;DHT22;9177;49.156;8.142;2022-08-24T06:40:30;26.70;91.90
18101;DHT22;9177;49.156;8.142;2022-08-24T06:43:01;26.70;91.90
18101;DHT22;9177;49.156;8.142;2022-08-24T06:45:28;26.70;91.80
18101;DHT22;9177;49.156;8.142;2022-08-24T06:47:56;26.60;91.80
18101;DHT22;9177;49.156;8.142;2022-08-24T06:50:24;26.70;91.80
18101;DHT22;9177;49.156;8.142;2022-08-24T06:52:51;26.60;91.70
18101;DHT22;9177;49.156;8.142;2022-08-24T06:55:18;26.60;91.70
18101;DHT22;9177;49.156;8.142;2022-08-24T06:57:45;26.60;91.50
18101;DHT22;9177;49.156;8.142;2022-08-24T07:00:13;26.70;91.60
18101;DHT22;9177;49.156;8.142;2022-08-24T07:02:41;26.70;91.50
18101;DHT22;9177;49.156;8.142;2022-08-24T07:05:10;26.70;91.40
18101;DHT22;9177;49.156;8.142;2022-08-24T07:07:37;26.70;91.40
18101;DHT22;9177;49.156;8.142;2022-08-24T07:10:05;26.60;91.30
18101;DHT22;9177;49.156;8.142;2022-08-24T07:12:33;26.70;91.30
18101;DHT22;9177;49.156;8.142;2022-08-24T07:15:00;26.60;91.10
18101;DHT22;9177;49.156;8.142;2022-08-24T07:17:27;26.60;91.60
18101;DHT22;9177;49.156;8.142;2022-08-24T07:19:54;26.70;91.00
18101;DHT22;9177;49.156;8.142;2022-08-24T07:22:22;26.60;91.10
18101;DHT22;9177;49.156;8.142;2022-08-24T07:24:49;26.60;91.00
18101;DHT22;9177;49.156;8.142;2022-08-24T07:27:16;26.70;90.80
18101;DHT22;9177;49.156;8.142;2022-08-24T07:29:43;26.70;90.90
18101;DHT22;9177;49.156;8.142;2022-08-24T07:32:10;26.70;90.70
18101;DHT22;9177;49.156;8.142;2022-08-24T07:34:38;26.70;91.00
18101;DHT22;9177;49.156;8.142;2022-08-24T07:37:05;26.70;90.60
18101;DHT22;9177;49.156;8.142;2022-08-24T07:39:33;26.70;90.60
18101;DHT22;9177;49.156;8.142;2022-08-24T07:42:00;26.80;90.50
18101;DHT22;9177;49.156;8.142;2022-08-24T07:44:27;26.80;90.50
18101;DHT22;9177;49.156;8.142;2022-08-24T07:46:55;26.90;90.40
18101;DHT22;9177;49.156;8.142;2022-08-24T07:49:22;26.90;90.30
18101;DHT22;9177;49.156;8.142;2022-08-24T07:51:49;26.90;90.30
18101;DHT22;9177;49.156;8.142;2022-08-24T07:54:18;27.00;90.30
18101;DHT22;9177;49.156;8.142;2022-08-24T07:56:46;27.00;90.30
18101;DHT22;9177;49.156;8.142;2022-08-24T07:59:14;27.00;90.20
18101;DHT22;9177;49.156;8.142;2022-08-24T08:01:42;27.10;90.30
18101;DHT22;9177;49.156;8.142;2022-08-24T08:04:09;27.10;90.30
18101;DHT22;9177;49.156;8.142;2022-08-24T08:06:36;27.10;90.30
18101;DHT22;9177;49.156;8.142;2022-08-24T08:09:03;27.10;90.30
18101;DHT22;9177;49.156;8.142;2022-08-24T08:11:30;27.20;90.40
18101;DHT22;9177;49.156;8.142;2022-08-24T08:13:58;27.20;90.30
18101;DHT22;9177;49.156;8.142;2022-08-24T08:16:28;27.20;90.30
18101;DHT22;9177;49.156;8.142;2022-08-24T08:18:55;27.20;90.30
18101;DHT22;9177;49.156;8.142;2022-08-24T08:21:22;27.20;90.40
18101;DHT22;9177;49.156;8.142;2022-08-24T08:24:06;27.20;90.40
18101;DHT22;9177;49.156;8.142;2022-08-24T08:26:43;27.20;90.40
18101;DHT22;9177;49.156;8.142;2022-08-24T08:29:12;27.20;90.40
18101;DHT22;9177;49.156;8.142;2022-08-24T08:31:40;27.30;90.50
18101;DHT22;9177;49.156;8.142;2022-08-24T08:34:07;27.30;90.50
18101;DHT22;9177;49.156;8.142;2022-08-24T08:36:35;27.30;90.50
18101;DHT22;9177;49.156;8.142;2022-08-24T08:39:04;27.30;90.70
18101;DHT22;9177;49.156;8.142;2022-08-24T08:45:10;27.30;90.80
18101;DHT22;9177;49.156;8.142;2022-08-24T08:48:16;27.30;90.90
18101;DHT22;9177;49.156;8.142;2022-08-24T08:51:07;27.30;91.10
18101;DHT22;9177;49.156;8.142;2022-08-24T08:54:02;27.30;91.10
18101;DHT22;9177;49.156;8.142;2022-08-24T08:56:34;27.40;91.40
18101;DHT22;9177;49.156;8.142;2022-08-24T08:59:13;27.40;91.30
18101;DHT22;9177;49.156;8.142;2022-08-24T09:01:51;27.40;91.80
18101;DHT22;9177;49.156;8.142;2022-08-24T09:07:38;27.50;91.50
18101;DHT22;9177;49.156;8.142;2022-08-24T09:10:38;27.50;91.40
18101;DHT22;9177;49.156;8.142;2022-08-24T09:13:36;27.50;91.30
18101;DHT22;9177;49.156;8.142;2022-08-24T09:16:21;27.40;91.60
18101;DHT22;9177;49.156;8.142;2022-08-24T09:19:22;27.50;91.10
18101;DHT22;9177;49.156;8.142;2022-08-24T09:22:05;27.50;91.10
18101;DHT22;9177;49.156;8.142;2022-08-24T09:24:48;27.50;91.00
18101;DHT22;9177;49.156;8.142;2022-08-24T09:27:34;27.50;90.90
18101;DHT22;9177;49.156;8.142;2022-08-24T09:30:09;27.50;90.90
18101;DHT22;9177;49.156;8.142;2022-08-24T09:32:50;27.50;90.90
18101;DHT22;9177;49.156;8.142;2022-08-24T09:35:30;27.60;90.90
18101;DHT22;9177;49.156;8.142;2022-08-24T09:37:59;27.60;90.90
18101;DHT22;9177;49.156;8.142;2022-08-24T09:40:35;27.60;90.90
18101;DHT22;9177;49.156;8.142;2022-08-24T09:43:38;27.60;90.90
18101;DHT22;9177;49.156;8.142;2022-08-24T09:46:39;27.60;90.90
18101;DHT22;9177;49.156;8.142;2022-08-24T09:52:47;27.60;90.90
18101;DHT22;9177;49.156;8.142;2022-08-24T09:55:42;27.70;90.90
18101;DHT22;9177;49.156;8.142;2022-08-24T09:58:23;27.70;90.90
18101;DHT22;9177;49.156;8.142;2022-08-24T10:01:02;27.70;90.90
18101;DHT22;9177;49.156;8.142;2022-08-24T10:03:52;27.70;90.90
18101;DHT22;9177;49.156;8.142;2022-08-24T10:06:27;27.70;90.90
18101;DHT22;9177;49.156;8.142;2022-08-24T10:09:13;27.70;90.90
18101;DHT22;9177;49.156;8.142;2022-08-24T10:11:53;27.70;90.90
18101;DHT22;9177;49.156;8.142;2022-08-24T10:14:37;27.70;90.90
18101;DHT22;9177;49.156;8.142;2022-08-24T10:17:15;27.80;90.90
18101;DHT22;9177;49.156;8.142;2022-08-24T10:19:57;27.70;90.90
18101;DHT22;9177;49.156;8.142;2022-08-24T10:22:49;27.70;90.90
18101;DHT22;9177;49.156;8.142;2022-08-24T10:25:34;27.80;90.90
18101;DHT22;9177;49.156;8.142;2022-08-24T10:28:34;27.80;91.00
18101;DHT22;9177;49.156;8.142;2022-08-24T10:31:07;27.80;91.00
18101;DHT22;9177;49.156;8.142;2022-08-24T10:33:43;27.80;91.00
18101;DHT22;9177;49.156;8.142;2022-08-24T10:36:56;27.80;91.00
18101;DHT22;9177;49.156;8.142;2022-08-24T10:40:02;27.80;91.00
18101;DHT22;9177;49.156;8.142;2022-08-24T10:42:41;27.80;91.00
18101;DHT22;9177;49.156;8.142;2022-08-24T10:46:00;27.80;91.00
18101;DHT22;9177;49.156;8.142;2022-08-24T10:51:48;27.90;91.00
18101;DHT22;9177;49.156;8.142;2022-08-24T10:54:22;27.90;91.00
18101;DHT22;9177;49.156;8.142;2022-08-24T10:56:56;27.90;91.00
18101;DHT22;9177;49.156;8.142;2022-08-24T10:59:35;27.90;91.00
18101;DHT22;9177;49.156;8.142;2022-08-24T11:02:08;27.90;91.00
18101;DHT22;9177;49.156;8.142;2022-08-24T11:04:36;27.90;91.00
18101;DHT22;9177;49.156;8.142;2022-08-24T11:07:08;28.00;91.00
18101;DHT22;9177;49.156;8.142;2022-08-24T11:09:48;28.00;91.00
18101;DHT22;9177;49.156;8.142;2022-08-24T11:12:27;28.00;91.00
18101;DHT22;9177;49.156;8.142;2022-08-24T11:14:59;28.00;91.00
18101;DHT22;9177;49.156;8.142;2022-08-24T11:17:28;28.00;91.00
18101;DHT22;9177;49.156;8.142;2022-08-24T11:19:55;28.00;91.00
18101;DHT22;9177;49.156;8.142;2022-08-24T11:22:33;28.00;91.00
18101;DHT22;9177;49.156;8.142;2022-08-24T11:25:09;28.00;90.90
18101;DHT22;9177;49.156;8.142;2022-08-24T11:27:41;28.10;91.00
18101;DHT22;9177;49.156;8.142;2022-08-24T11:30:14;28.10;91.00
18101;DHT22;9177;49.156;8.142;2022-08-24T11:32:52;28.10;90.90
18101;DHT22;9177;49.156;8.142;2022-08-24T11:35:23;28.10;90.90
18101;DHT22;9177;49.156;8.142;2022-08-24T11:37:51;28.10;91.10
18101;DHT22;9177;49.156;8.142;2022-08-24T11:40:24;28.20;90.70
18101;DHT22;9177;49.156;8.142;2022-08-24T11:43:15;28.20;90.90
18101;DHT22;9177;49.156;8.142;2022-08-24T11:45:59;28.20;90.80
18101;DHT22;9177;49.156;8.142;2022-08-24T11:48:34;28.20;90.90
18101;DHT22;9177;49.156;8.142;2022-08-24T11:51:11;28.30;90.90
18101;DHT22;9177;49.156;8.142;2022-08-24T11:53:49;28.30;91.10
18101;DHT22;9177;49.156;8.142;2022-08-24T11:56:23;28.30;90.90
18101;DHT22;9177;49.156;8.142;2022-08-24T11:58:55;28.40;90.90
18101;DHT22;9177;49.156;8.142;2022-08-24T12:01:31;28.40;90.80
18101;DHT22;9177;49.156;8.142;2022-08-24T12:04:19;28.40;90.70
18101;DHT22;9177;49.156;8.142;2022-08-24T12:06:55;28.50;90.80
18101;DHT22;9177;49.156;8.142;2022-08-24T12:09:42;28.60;90.80
18101;DHT22;9177;49.156;8.142;2022-08-24T12:12:15;28.60;90.60
18101;DHT22;9177;49.156;8.142;2022-08-24T12:14:48;28.60;90.60
18101;DHT22;9177;49.156;8.142;2022-08-24T12:17:24;28.60;90.60
18101;DHT22;9177;49.156;8.142;2022-08-24T12:19:55;28.70;90.60
18101;DHT22;9177;49.156;8.142;2022-08-24T12:22:26;28.70;90.60
18101;DHT22;9177;49.156;8.142;2022-08-24T12:24:57;28.70;90.60
18101;DHT22;9177;49.156;8.142;2022-08-24T12:27:27;28.70;90.70
18101;DHT22;9177;49.156;8.142;2022-08-24T12:29:59;28.70;90.60
18101;DHT22;9177;49.156;8.142;2022-08-24T12:32:31;28.70;91.00
18101;DHT22;9177;49.156;8.142;2022-08-24T12:35:05;28.70;90.60
18101;DHT22;9177;49.156;8.142;2022-08-24T12:37:40;28.70;90.60
18101;DHT22;9177;49.156;8.142;2022-08-24T12:40:20;28.80;90.50
18101;DHT22;9177;49.156;8.142;2022-08-24T12:42:49;28.80;90.50
18101;DHT22;9177;49.156;8.142;2022-08-24T12:45:19;28.80;90.50
18101;DHT22;9177;49.156;8.142;2022-08-24T12:47:51;28.90;90.60
18101;DHT22;9177;49.156;8.142;2022-08-24T12:50:25;28.90;90.50
18101;DHT22;9177;49.156;8.142;2022-08-24T12:53:18;28.90;90.50
18101;DHT22;9177;49.156;8.142;2022-08-24T12:59:13;28.90;90.50
18101;DHT22;9177;49.156;8.142;2022-08-24T13:01:44;29.00;90.60
18101;DHT22;9177;49.156;8.142;2022-08-24T13:04:17;29.00;90.60
18101;DHT22;9177;49.156;8.142;2022-08-24T13:06:51;29.00;90.60
18101;DHT22;9177;49.156;8.142;2022-08-24T13:09:30;29.00;90.60
18101;DHT22;9177;49.156;8.142;2022-08-24T13:15:20;29.00;90.70
18101;DHT22;9177;49.156;8.142;2022-08-24T13:17:48;29.00;90.70
18101;DHT22;9177;49.156;8.142;2022-08-24T13:20:20;29.00;90.60
18101;DHT22;9177;49.156;8.142;2022-08-24T13:23:03;29.00;90.70
18101;DHT22;9177;49.156;8.142;2022-08-24T13:25:53;29.10;90.70
18101;DHT22;9177;49.156;8.142;2022-08-24T13:28:41;29.10;90.70
18101;DHT22;9177;49.156;8.142;2022-08-24T13:31:24;29.10;90.70
18101;DHT22;9177;49.156;8.142;2022-08-24T13:33:55;29.10;90.70
18101;DHT22;9177;49.156;8.142;2022-08-24T13:36:50;29.10;90.70
18101;DHT22;9177;49.156;8.142;2022-08-24T13:39:44;29.10;90.70
18101;DHT22;9177;49.156;8.142;2022-08-24T13:45:29;29.10;90.70
18101;DHT22;9177;49.156;8.142;2022-08-24T13:48:11;29.20;90.70
18101;DHT22;9177;49.156;8.142;2022-08-24T13:50:49;29.20;90.70
18101;DHT22;9177;49.156;8.142;2022-08-24T13:53:48;29.10;90.70
18101;DHT22;9177;49.156;8.142;2022-08-24T13:56:28;29.20;90.80
18101;DHT22;9177;49.156;8.142;2022-08-24T13:59:03;29.10;90.80
18101;DHT22;9177;49.156;8.142;2022-08-24T14:01:35;29.10;90.90
18101;DHT22;9177;49.156;8.142;2022-08-24T14:04:27;29.10;90.90
18101;DHT22;9177;49.156;8.142;2022-08-24T14:07:02;29.10;90.90
18101;DHT22;9177;49.156;8.142;2022-08-24T14:09:42;29.20;90.90
18101;DHT22;9177;49.156;8.142;2022-08-24T14:12:22;29.10;90.90
18101;DHT22;9177;49.156;8.142;2022-08-24T14:15:06;29.20;90.90
18101;DHT22;9177;49.156;8.142;2022-08-24T14:17:42;29.20;90.90
18101;DHT22;9177;49.156;8.142;2022-08-24T14:20:46;29.20;91.00
18101;DHT22;9177;49.156;8.142;2022-08-24T14:23:32;29.20;90.90
18101;DHT22;9177;49.156;8.142;2022-08-24T14:29:43;29.20;91.00
18101;DHT22;9177;49.156;8.142;2022-08-24T14:32:43;29.20;90.90
18101;DHT22;9177;49.156;8.142;2022-08-24T14:35:39;29.20;91.00
18101;DHT22;9177;49.156;8.142;2022-08-24T14:41:17;29.20;91.00
18101;DHT22;9177;49.156;8.142;2022-08-24T14:46:47;29.00;91.10
18101;DHT22;9177;49.156;8.142;2022-08-24T14:49:23;28.90;91.20
18101;DHT22;9177;49.156;8.142;2022-08-24T14:52:22;28.80;91.30
18101;DHT22;9177;49.156;8.142;2022-08-24T14:55:03;28.80;91.30
18101;DHT22;9177;49.156;8.142;2022-08-24T14:57:49;28.90;91.30
18101;DHT22;9177;49.156;8.142;2022-08-24T15:00:24;28.90;91.30
18101;DHT22;9177;49.156;8.142;2022-08-24T15:03:09;28.90;91.30
18101;DHT22;9177;49.156;8.142;2022-08-24T15:05:42;28.90;91.40
18101;DHT22;9177;49.156;8.142;2022-08-24T15:08:12;28.90;91.40
18101;DHT22;9177;49.156;8.142;2022-08-24T15:10:44;28.90;91.40
18101;DHT22;9177;49.156;8.142;2022-08-24T15:13:25;28.90;91.50
18101;DHT22;9177;49.156;8.142;2022-08-24T15:15:56;28.90;91.40
18101;DHT22;9177;49.156;8.142;2022-08-24T15:18:32;28.90;91.50
18101;DHT22;9177;49.156;8.142;2022-08-24T15:21:10;28.80;91.50
18101;DHT22;9177;49.156;8.142;2022-08-24T15:24:01;28.80;91.50
18101;DHT22;9177;49.156;8.142;2022-08-24T15:26:38;28.80;91.60
18101;DHT22;9177;49.156;8.142;2022-08-24T15:29:09;28.80;91.60
18101;DHT22;9177;49.156;8.142;2022-08-24T15:31:40;28.80;91.60
18101;DHT22;9177;49.156;8.142;2022-08-24T15:34:08;28.80;91.70
18101;DHT22;9177;49.156;8.142;2022-08-24T15:36:35;28.80;91.70
18101;DHT22;9177;49.156;8.142;2022-08-24T15:39:04;28.80;91.80
18101;DHT22;9177;49.156;8.142;2022-08-24T15:41:34;28.80;91.90
18101;DHT22;9177;49.156;8.142;2022-08-24T15:44:05;28.80;91.80
18101;DHT22;9177;49.156;8.142;2022-08-24T15:46:36;28.70;91.90
18101;DHT22;9177;49.156;8.142;2022-08-24T15:49:12;28.70;92.00
18101;DHT22;9177;49.156;8.142;2022-08-24T15:51:46;28.70;92.00
18101;DHT22;9177;49.156;8.142;2022-08-24T15:54:26;28.70;92.10
18101;DHT22;9177;49.156;8.142;2022-08-24T15:56:57;28.70;92.10
18101;DHT22;9177;49.156;8.142;2022-08-24T15:59:26;28.70;92.10
18101;DHT22;9177;49.156;8.142;2022-08-24T16:01:56;28.70;92.20
18101;DHT22;9177;49.156;8.142;2022-08-24T16:04:44;28.70;92.20
18101;DHT22;9177;49.156;8.142;2022-08-24T16:07:15;28.70;92.30
18101;DHT22;9177;49.156;8.142;2022-08-24T16:09:47;28.70;92.30
18101;DHT22;9177;49.156;8.142;2022-08-24T16:12:20;28.70;92.40
18101;DHT22;9177;49.156;8.142;2022-08-24T16:14:51;28.70;92.40
18101;DHT22;9177;49.156;8.142;2022-08-24T16:17:27;28.70;92.50
18101;DHT22;9177;49.156;8.142;2022-08-24T16:19:58;28.70;92.50
18101;DHT22;9177;49.156;8.142;2022-08-24T16:22:29;28.70;92.60
18101;DHT22;9177;49.156;8.142;2022-08-24T16:25:16;28.70;92.60
18101;DHT22;9177;49.156;8.142;2022-08-24T16:28:06;28.60;92.60
18101;DHT22;9177;49.156;8.142;2022-08-24T16:30:41;28.60;92.60
18101;DHT22;9177;49.156;8.142;2022-08-24T16:33:09;28.60;92.50
18101;DHT22;9177;49.156;8.142;2022-08-24T16:35:37;28.60;92.50
18101;DHT22;9177;49.156;8.142;2022-08-24T16:38:04;28.70;92.50
18101;DHT22;9177;49.156;8.142;2022-08-24T16:40:31;28.60;92.80
18101;DHT22;9177;49.156;8.142;2022-08-24T16:42:59;28.60;92.60
18101;DHT22;9177;49.156;8.142;2022-08-24T16:45:27;28.60;92.50
18101;DHT22;9177;49.156;8.142;2022-08-24T16:47:54;28.60;92.50
18101;DHT22;9177;49.156;8.142;2022-08-24T16:50:21;28.60;92.40
18101;DHT22;9177;49.156;8.142;2022-08-24T16:52:49;28.60;92.40
18101;DHT22;9177;49.156;8.142;2022-08-24T16:55:16;28.60;92.40